Time;durP1;ratioP1;P1;durP2;ratioP2;P2;SDS_P1;SDS_P2;PMS_P1;PMS_P2;Temp;Humidity;BMP_temperature;BMP_pressure;BME280_temperature;BME280_humidity;BME280_pressure;Samples;Min_cycle;Max_cycle;Signal;HPM_P1;HPM_P2
2023/06/12 00:01:19;;;;;;;3.17;1.70;;;24.30;52.70;;;;;;6240486;28;20026;-69
2023/06/12 00:04:21;;;;;;;2.47;1.63;;;24.30;53.20;;;;;;6240653;28;20476;-71
2023/06/12 00:07:22;;;;;;;4.97;2.13;;;24.20;53.60;;;;;;6238671;28;20131;-70
2023/06/12 00:10:24;;;;;;;3.33;2.10;;;24.10;54.00;;;;;;6219928;28;20121;-71
2023/06/12 00:13:25;;;;;;;4.10;1.73;;;24.10;54.30;;;;;;6239566;28;20196;-69
2023/06/12 00:16:27;;;;;;;4.57;2.10;;;24.10;54.80;;;;;;6237358;28;20025;-69
2023/06/12 00:19:27;;;;;;;2.75;1.90;;;23.90;55.20;;;;;;6238489;28;20175;-69
2023/06/12 00:22:28;;;;;;;2.90;1.70;;;24.00;55.60;;;;;;6240230;28;20367;-69
2023/06/12 00:25:29;;;;;;;8.07;1.90;;;23.90;56.00;;;;;;6239119;28;20037;-71
2023/06/12 00:28:31;;;;;;;3.95;2.00;;;23.80;56.20;;;;;;6238885;28;20037;-69
2023/06/12 00:31:31;;;;;;;6.15;2.28;;;23.80;56.40;;;;;;6239899;28;20121;-70
2023/06/12 00:34:32;;;;;;;3.42;2.00;;;23.80;56.50;;;;;;6222249;28;20120;-70
2023/06/12 00:37:33;;;;;;;3.38;1.90;;;23.80;56.60;;;;;;6239905;28;20109;-70
2023/06/12 00:40:34;;;;;;;3.55;2.17;;;23.80;56.70;;;;;;6238281;28;20037;-69
2023/06/12 00:43:35;;;;;;;4.20;2.50;;;23.80;56.80;;;;;;6239377;28;20029;-69
2023/06/12 00:46:37;;;;;;;6.28;2.30;;;23.80;56.80;;;;;;6254694;28;20064;-70
2023/06/12 00:49:38;;;;;;;4.38;2.28;;;23.80;56.90;;;;;;6239937;28;20033;-69
2023/06/12 00:52:48;;;;;;;3.40;2.10;;;23.80;57.10;;;;;;6238100;28;20022;-69
2023/06/12 00:55:49;;;;;;;5.97;1.85;;;23.70;57.20;;;;;;6239707;28;20064;-69
2023/06/12 00:58:52;;;;;;;4.70;2.10;;;23.70;57.20;;;;;;6239889;28;20225;-69
2023/06/12 01:01:53;;;;;;;3.33;1.80;;;23.70;57.20;;;;;;6237753;28;20098;-68
2023/06/12 01:04:55;;;;;;;5.03;2.03;;;23.70;57.40;;;;;;6238195;28;20037;-70
2023/06/12 01:08:07;;;;;;;7.40;2.17;;;23.60;57.40;;;;;;6239432;28;20149;-70
2023/06/12 01:11:10;;;;;;;6.28;2.15;;;23.60;57.60;;;;;;6242304;28;20030;-68
2023/06/12 01:14:16;;;;;;;4.60;2.30;;;23.60;57.60;;;;;;6240582;28;20033;-71
2023/06/12 01:17:18;;;;;;;5.95;1.67;;;23.50;57.80;;;;;;6222181;28;20033;-70
2023/06/12 01:20:20;;;;;;;7.03;1.90;;;23.50;57.70;;;;;;6239304;28;20136;-69
2023/06/12 01:23:21;;;;;;;3.33;2.08;;;23.50;57.80;;;;;;6239034;28;20644;-70
2023/06/12 01:26:46;;;;;;;3.97;1.98;;;23.50;57.90;;;;;;6238660;28;20036;-69
2023/06/12 01:29:48;;;;;;;3.65;1.83;;;23.50;58.00;;;;;;6242130;28;20025;-70
2023/06/12 01:32:50;;;;;;;3.08;1.90;;;23.40;57.90;;;;;;6242026;28;20088;-70
2023/06/12 01:35:53;;;;;;;1.70;1.60;;;23.40;57.90;;;;;;6242203;28;20033;-69
2023/06/12 01:38:59;;;;;;;2.65;1.63;;;23.40;57.90;;;;;;6241979;28;20053;-69
2023/06/12 01:42:00;;;;;;;4.53;1.45;;;23.40;57.70;;;;;;6241620;28;20099;-70
2023/06/12 01:45:03;;;;;;;6.50;1.60;;;23.40;57.40;;;;;;6241877;28;20044;-69
2023/06/12 01:48:05;;;;;;;2.67;1.50;;;23.40;57.20;;;;;;6225224;28;20554;-70
2023/06/12 01:51:06;;;;;;;2.20;1.50;;;23.40;57.10;;;;;;6241484;28;20450;-69
2023/06/12 01:54:07;;;;;;;3.17;1.70;;;23.40;56.90;;;;;;6241079;28;20147;-71
2023/06/12 01:57:08;;;;;;;2.22;1.75;;;23.40;56.80;;;;;;6242838;28;20059;-70
2023/06/12 02:00:12;;;;;;;1.75;1.33;;;23.40;56.60;;;;;;6241418;28;20067;-69
2023/06/12 02:03:22;;;;;;;3.30;1.35;;;23.40;56.40;;;;;;6242336;28;20230;-68
2023/06/12 02:06:25;;;;;;;1.60;1.20;;;23.50;56.30;;;;;;6240818;28;20074;-68
2023/06/12 02:09:26;;;;;;;1.63;1.17;;;23.40;56.20;;;;;;6240842;28;20034;-70
2023/06/12 02:12:29;;;;;;;1.25;1.13;;;23.50;56.10;;;;;;6240872;28;20030;-69
2023/06/12 02:15:31;;;;;;;3.72;1.23;;;23.40;55.90;;;;;;6242969;28;20044;-68
2023/06/12 02:18:32;;;;;;;3.17;1.30;;;23.50;55.90;;;;;;6243014;28;20037;-72
2023/06/12 02:21:33;;;;;;;5.43;1.70;;;23.40;55.80;;;;;;6240813;28;20124;-69
2023/06/12 02:24:35;;;;;;;2.13;1.70;;;23.40;55.70;;;;;;6240919;28;20037;-70
2023/06/12 02:27:38;;;;;;;3.10;1.08;;;23.40;55.70;;;;;;6241361;28;20120;-68
2023/06/12 02:30:39;;;;;;;1.67;1.25;;;23.40;55.80;;;;;;6240928;28;20343;-68
2023/06/12 02:33:39;;;;;;;5.13;1.80;;;23.30;55.90;;;;;;6240997;28;20026;-70
2023/06/12 02:36:46;;;;;;;3.78;1.77;;;23.30;56.10;;;;;;6223881;28;20171;-68
2023/06/12 02:39:52;;;;;;;3.10;1.55;;;23.20;56.20;;;;;;6239384;28;20057;-69
2023/06/12 02:42:53;;;;;;;2.28;1.30;;;23.20;56.20;;;;;;6240254;28;20507;-68
2023/06/12 02:45:54;;;;;;;2.78;1.30;;;23.10;56.30;;;;;;6240230;28;20037;-69
2023/06/12 02:48:56;;;;;;;3.25;1.60;;;23.10;56.30;;;;;;6240141;28;20040;-70
2023/06/12 02:51:58;;;;;;;3.95;1.67;;;23.10;56.40;;;;;;6239706;28;20036;-70
2023/06/12 02:54:59;;;;;;;2.78;1.52;;;23.10;57.10;;;;;;6240129;28;20021;-69
2023/06/12 02:58:00;;;;;;;7.18;1.50;;;23.10;56.50;;;;;;6240228;28;20501;-68
2023/06/12 03:01:04;;;;;;;3.83;1.30;;;23.10;56.50;;;;;;6239939;28;20041;-70
2023/06/12 03:04:05;;;;;;;2.15;1.67;;;23.10;56.50;;;;;;6239721;28;20530;-70
2023/06/12 03:07:06;;;;;;;4.30;1.73;;;23.10;56.40;;;;;;6239535;28;20030;-70
2023/06/12 03:10:08;;;;;;;10.93;1.80;;;23.10;56.30;;;;;;6237783;28;20139;-70
2023/06/12 03:13:09;;;;;;;7.43;1.63;;;23.20;56.20;;;;;;6216438;28;20026;-70
2023/06/12 03:16:11;;;;;;;6.20;1.50;;;23.20;56.10;;;;;;6215263;28;20061;-70
2023/06/12 03:19:11;;;;;;;2.97;1.60;;;23.30;56.00;;;;;;6215026;28;20034;-70
2023/06/12 03:22:12;;;;;;;1.67;1.38;;;23.30;55.90;;;;;;6214592;28;20076;-69
2023/06/12 03:25:18;;;;;;;2.50;1.30;;;23.30;55.80;;;;;;6214645;28;20125;-68
2023/06/12 03:28:20;;;;;;;2.17;1.27;;;23.30;55.80;;;;;;6214710;28;20037;-69
2023/06/12 03:31:24;;;;;;;6.07;1.65;;;23.30;55.80;;;;;;6214750;28;20041;-69
2023/06/12 03:34:26;;;;;;;5.78;1.30;;;23.30;55.80;;;;;;6214610;28;20037;-68
2023/06/12 03:37:28;;;;;;;2.60;1.55;;;23.30;55.80;;;;;;6214576;28;20037;-69
2023/06/12 03:40:30;;;;;;;3.97;1.60;;;23.30;55.70;;;;;;6214556;28;20434;-70
2023/06/12 03:43:31;;;;;;;1.80;1.40;;;23.40;55.60;;;;;;6214811;28;20088;-69
2023/06/12 03:46:32;;;;;;;2.45;1.45;;;23.40;55.50;;;;;;6215641;28;20109;-70
2023/06/12 03:49:35;;;;;;;4.35;1.52;;;23.40;55.40;;;;;;6214311;28;20045;-70
2023/06/12 03:52:36;;;;;;;5.38;2.10;;;23.40;55.50;;;;;;6213792;28;20486;-69
2023/06/12 03:55:36;;;;;;;1.40;1.25;;;23.30;55.50;;;;;;6217573;28;20025;-69
2023/06/12 03:58:37;;;;;;;4.35;1.70;;;23.30;55.50;;;;;;6238643;28;20037;-69
2023/06/12 04:01:39;;;;;;;2.50;1.50;;;23.40;55.50;;;;;;6238410;28;20033;-69
2023/06/12 04:04:40;;;;;;;3.85;1.77;;;23.40;55.50;;;;;;6238506;28;20460;-70
2023/06/12 04:07:41;;;;;;;1.85;1.55;;;23.30;55.50;;;;;;6238316;28;20041;-69
2023/06/12 04:10:43;;;;;;;2.88;1.52;;;23.30;56.10;;;;;;6238843;28;20029;-69
2023/06/12 04:13:45;;;;;;;3.25;1.60;;;23.30;55.60;;;;;;6239803;28;20088;-69
2023/06/12 04:16:46;;;;;;;1.83;1.48;;;23.30;55.60;;;;;;6238569;28;20115;-70
2023/06/12 04:19:49;;;;;;;4.18;1.65;;;23.30;55.60;;;;;;6238801;28;20072;-70
2023/06/12 04:22:50;;;;;;;2.53;1.77;;;23.30;55.70;;;;;;6238312;28;20029;-69
2023/06/12 04:25:51;;;;;;;3.00;1.90;;;23.20;55.60;;;;;;6238617;28;20127;-70
2023/06/12 04:28:54;;;;;;;2.35;1.55;;;23.20;55.70;;;;;;6223288;28;20080;-69
2023/06/12 04:31:56;;;;;;;2.28;1.70;;;23.20;56.30;;;;;;6241905;28;20037;-69
2023/06/12 04:34:56;;;;;;;3.45;1.80;;;23.20;56.30;;;;;;6240338;28;20433;-69
2023/06/12 04:37:58;;;;;;;4.03;1.98;;;23.30;55.60;;;;;;6239303;28;20033;-69
2023/06/12 04:40:59;;;;;;;13.25;1.83;;;23.30;55.60;;;;;;6240064;28;20035;-70
2023/06/12 04:44:00;;;;;;;5.65;1.90;;;23.40;55.50;;;;;;6238096;28;20034;-70
2023/06/12 04:47:11;;;;;;;3.75;1.90;;;23.40;55.40;;;;;;6238091;28;20052;-69
2023/06/12 04:50:12;;;;;;;3.78;1.80;;;23.40;55.20;;;;;;6239794;28;20836;-69
2023/06/12 04:53:17;;;;;;;11.07;2.33;;;23.50;55.20;;;;;;6239015;28;20084;-69
2023/06/12 04:56:23;;;;;;;4.22;1.90;;;23.50;55.20;;;;;;6239734;28;20026;-69
2023/06/12 04:59:26;;;;;;;3.00;1.40;;;23.50;55.20;;;;;;6254222;28;20076;-69
2023/06/12 05:02:27;;;;;;;5.70;1.75;;;23.50;55.20;;;;;;6239772;28;20496;-69
2023/06/12 05:05:27;;;;;;;4.20;1.92;;;23.50;55.10;;;;;;6242519;28;20072;-68
2023/06/12 05:08:29;;;;;;;11.10;2.00;;;23.60;55.10;;;;;;6242052;28;20039;-69
2023/06/12 05:11:29;;;;;;;4.38;1.80;;;23.60;55.00;;;;;;6243311;28;20026;-69
2023/06/12 05:14:32;;;;;;;6.53;2.25;;;23.60;55.00;;;;;;6242247;28;20656;-70
2023/06/12 05:17:34;;;;;;;3.15;2.20;;;23.60;55.10;;;;;;6242095;28;20029;-69
2023/06/12 05:20:36;;;;;;;5.95;2.40;;;23.60;55.10;;;;;;6242154;28;20030;-69
2023/06/12 05:23:38;;;;;;;4.78;2.60;;;23.60;55.10;;;;;;6241450;28;20052;-69
2023/06/12 05:26:39;;;;;;;2.72;2.08;;;23.60;55.10;;;;;;6241935;28;20083;-69
2023/06/12 05:29:40;;;;;;;10.55;2.42;;;23.70;55.10;;;;;;6242139;28;20497;-69
2023/06/12 05:32:42;;;;;;;4.18;2.10;;;23.70;55.20;;;;;;6242112;28;20029;-68
2023/06/12 05:35:45;;;;;;;4.80;2.38;;;23.70;55.20;;;;;;6242460;28;20121;-70
2023/06/12 05:38:46;;;;;;;4.72;2.13;;;23.70;55.20;;;;;;6225542;28;20029;-69
2023/06/12 05:41:47;;;;;;;9.35;2.47;;;23.70;55.40;;;;;;6241312;28;20029;-70
2023/06/12 05:44:48;;;;;;;7.57;2.10;;;23.70;55.50;;;;;;6241382;28;20115;-70
2023/06/12 05:47:51;;;;;;;5.97;2.60;;;23.70;55.60;;;;;;6240985;28;20026;-70
2023/06/12 05:50:52;;;;;;;3.10;2.33;;;23.70;55.70;;;;;;6241200;28;20067;-69
2023/06/12 05:53:54;;;;;;;7.35;2.13;;;23.80;55.90;;;;;;6258054;28;20584;-69
2023/06/12 05:56:56;;;;;;;4.88;2.47;;;23.80;56.20;;;;;;6241214;28;20383;-70
2023/06/12 05:59:57;;;;;;;6.35;2.55;;;23.80;56.30;;;;;;6241092;28;20033;-69
2023/06/12 06:02:58;;;;;;;2.65;2.10;;;23.90;56.40;;;;;;6240710;28;20037;-69
2023/06/12 06:06:06;;;;;;;7.75;2.53;;;24.00;56.40;;;;;;6240994;28;20093;-69
2023/06/12 06:09:08;;;;;;;11.52;2.47;;;24.00;56.30;;;;;;6229171;28;20039;-69
2023/06/12 06:12:10;;;;;;;3.90;2.47;;;24.10;56.30;;;;;;6240122;28;20054;-68
2023/06/12 06:15:11;;;;;;;4.88;2.38;;;24.00;56.40;;;;;;6240509;28;20453;-69
2023/06/12 06:18:12;;;;;;;5.30;2.28;;;24.00;56.50;;;;;;6240467;28;20073;-69
2023/06/12 06:21:14;;;;;;;7.15;2.13;;;24.00;56.50;;;;;;6240131;28;20072;-69
2023/06/12 06:24:15;;;;;;;6.28;2.10;;;24.10;56.50;;;;;;6240285;28;20041;-69
2023/06/12 06:27:16;;;;;;;3.92;2.50;;;24.20;56.50;;;;;;6223824;28;20133;-68
2023/06/12 06:30:18;;;;;;;11.10;2.33;;;24.30;56.30;;;;;;6240477;28;20061;-69
2023/06/12 06:33:19;;;;;;;3.17;1.98;;;24.40;56.00;;;;;;6223848;28;20574;-69
2023/06/12 06:36:20;;;;;;;6.88;2.85;;;24.50;55.70;;;;;;6240517;28;20339;-69
2023/06/12 06:39:21;;;;;;;6.90;2.10;;;24.60;55.60;;;;;;6241761;28;20116;-70
2023/06/12 06:42:22;;;;;;;4.00;2.40;;;24.60;55.50;;;;;;6241063;28;20199;-69
2023/06/12 06:45:36;;;;;;;5.05;2.10;;;24.70;55.40;;;;;;6239770;28;20025;-69
2023/06/12 06:48:38;;;;;;;3.05;2.10;;;24.80;55.20;;;;;;6223570;28;20109;-70
2023/06/12 06:51:39;;;;;;;5.85;2.33;;;24.80;55.10;;;;;;6239455;28;20069;-69
2023/06/12 06:54:40;;;;;;;4.70;2.10;;;24.90;55.00;;;;;;6239897;28;20033;-69
2023/06/12 06:57:42;;;;;;;2.75;1.92;;;25.00;54.80;;;;;;6239679;28;20036;-70
2023/06/12 07:00:43;;;;;;;6.38;3.28;;;25.10;54.40;;;;;;6222952;28;20037;-70
2023/06/12 07:03:45;;;;;;;5.60;2.20;;;25.20;54.10;;;;;;6239149;28;20033;-70
2023/06/12 07:06:46;;;;;;;4.10;2.20;;;25.40;53.80;;;;;;6237345;28;20022;-70
2023/06/12 07:09:48;;;;;;;3.33;2.20;;;25.60;53.40;;;;;;6231448;28;20036;-70
2023/06/12 07:12:56;;;;;;;3.47;2.15;;;25.90;53.10;;;;;;6214581;28;20025;-70
2023/06/12 07:15:59;;;;;;;4.72;2.40;;;26.20;52.50;;;;;;6215448;28;20044;-70
2023/06/12 07:19:01;;;;;;;4.07;2.17;;;26.60;51.60;;;;;;6214847;28;20042;-69
2023/06/12 07:22:02;;;;;;;3.53;2.20;;;26.60;51.00;;;;;;6214722;28;20434;-70
2023/06/12 07:25:03;;;;;;;6.80;2.67;;;26.60;51.10;;;;;;6214622;28;20038;-70
2023/06/12 07:28:05;;;;;;;4.72;2.22;;;26.60;51.20;;;;;;6214646;28;20029;-70
2023/06/12 07:31:06;;;;;;;3.45;2.58;;;26.60;51.40;;;;;;6214455;28;20136;-69
2023/06/12 07:34:07;;;;;;;5.05;2.63;;;26.60;51.30;;;;;;6214476;28;20026;-70
2023/06/12 07:37:08;;;;;;;4.07;2.83;;;26.60;51.10;;;;;;6214224;28;20048;-70
2023/06/12 07:40:11;;;;;;;5.35;2.38;;;26.60;51.30;;;;;;6214378;28;20053;-70
2023/06/12 07:43:12;;;;;;;7.20;2.58;;;26.60;51.10;;;;;;6238689;28;20037;-70
2023/06/12 07:46:15;;;;;;;3.72;2.28;;;26.60;50.90;;;;;;6238592;28;20120;-70
2023/06/12 07:49:17;;;;;;;6.57;2.30;;;26.60;50.70;;;;;;6239393;28;20469;-70
2023/06/12 07:52:18;;;;;;;5.18;2.15;;;26.60;50.70;;;;;;6239467;28;20036;-70
2023/06/12 07:55:20;;;;;;;2.92;1.92;;;26.60;50.10;;;;;;6239338;28;20029;-70
2023/06/12 07:58:22;;;;;;;2.55;1.90;;;26.50;49.90;;;;;;6238595;28;20033;-70
2023/06/12 08:01:24;;;;;;;5.97;1.90;;;26.40;49.90;;;;;;6238220;28;20117;-70
2023/06/12 08:04:26;;;;;;;3.95;2.30;;;26.40;50.00;;;;;;6238426;28;20084;-70
2023/06/12 08:07:27;;;;;;;5.60;1.75;;;26.50;50.00;;;;;;6221912;28;20036;-70
2023/06/12 08:10:29;;;;;;;4.63;2.28;;;26.60;49.80;;;;;;6239687;28;20057;-70
2023/06/12 08:13:32;;;;;;;3.97;1.95;;;26.80;49.60;;;;;;6222794;28;20021;-70
2023/06/12 08:16:33;;;;;;;5.38;2.10;;;26.80;49.40;;;;;;6239032;28;20143;-70
2023/06/12 08:19:35;;;;;;;4.13;1.98;;;27.00;49.40;;;;;;6238598;28;20037;-70
2023/06/12 08:22:37;;;;;;;9.55;2.00;;;27.10;48.90;;;;;;6238114;28;20132;-70
2023/06/12 08:25:39;;;;;;;6.68;2.55;;;27.20;48.60;;;;;;6222076;28;20029;-71
2023/06/12 08:28:40;;;;;;;4.13;2.17;;;27.30;48.50;;;;;;6221948;28;20426;-70
2023/06/12 08:31:46;;;;;;;7.30;2.17;;;27.40;48.20;;;;;;6238301;28;20075;-69
2023/06/12 08:34:47;;;;;;;2.42;1.77;;;27.60;47.80;;;;;;6239848;28;20022;-70
2023/06/12 08:37:48;;;;;;;3.95;1.90;;;27.70;47.60;;;;;;6224926;28;20029;-70
2023/06/12 08:40:54;;;;;;;2.35;1.85;;;27.80;47.00;;;;;;6244664;28;20025;-70
2023/06/12 08:43:57;;;;;;;4.30;1.98;;;27.80;46.80;;;;;;6259404;28;20026;-70
2023/06/12 08:47:04;;;;;;;3.92;2.75;;;27.80;46.80;;;;;;6259396;28;20405;-71
2023/06/12 08:50:05;;;;;;;6.65;2.47;;;27.90;46.50;;;;;;6243310;28;20355;-69
2023/06/12 08:53:07;;;;;;;3.75;1.95;;;27.90;46.20;;;;;;6242562;28;20025;-69
2023/06/12 08:56:11;;;;;;;4.00;2.13;;;28.00;45.90;;;;;;6242810;28;20040;-70
2023/06/12 08:59:13;;;;;;;5.22;2.25;;;28.00;46.10;;;;;;6244331;28;20038;-70
2023/06/12 09:02:18;;;;;;;2.65;1.90;;;28.00;46.00;;;;;;6242340;28;20029;-70
2023/06/12 09:05:29;;;;;;;6.38;2.20;;;28.10;45.80;;;;;;6243705;28;20143;-69
2023/06/12 09:08:31;;;;;;;3.28;1.90;;;28.10;45.50;;;;;;6243550;28;20423;-69
2023/06/12 09:11:36;;;;;;;10.07;2.20;;;28.20;45.10;;;;;;6243424;28;20026;-69
2023/06/12 09:14:37;;;;;;;4.47;2.40;;;28.10;45.10;;;;;;6241912;28;20022;-69
2023/06/12 09:17:39;;;;;;;2.22;1.83;;;28.10;45.30;;;;;;6242089;28;20111;-70
2023/06/12 09:20:40;;;;;;;5.75;2.25;;;28.10;45.50;;;;;;6243313;28;20550;-69
2023/06/12 09:23:43;;;;;;;8.55;3.47;;;28.10;45.60;;;;;;6243013;28;20126;-70
2023/06/12 09:26:45;;;;;;;4.88;2.25;;;28.20;45.60;;;;;;6243362;28;20118;-70
2023/06/12 09:29:46;;;;;;;2.70;1.90;;;28.30;45.70;;;;;;6243390;28;20512;-70
2023/06/12 09:32:47;;;;;;;2.35;1.90;;;28.40;45.50;;;;;;6242540;28;20029;-69
2023/06/12 09:35:52;;;;;;;6.75;2.88;;;28.50;45.40;;;;;;6243475;28;20394;-71
2023/06/12 09:38:53;;;;;;;3.28;1.75;;;28.60;45.80;;;;;;6241283;28;20037;-68
2023/06/12 09:41:55;;;;;;;3.85;2.00;;;28.70;44.90;;;;;;6242467;28;20025;-70
2023/06/12 09:44:57;;;;;;;3.05;1.83;;;28.80;44.40;;;;;;6242553;28;20109;-69
2023/06/12 09:47:58;;;;;;;5.88;1.42;;;28.80;44.10;;;;;;6240493;28;20029;-70
2023/06/12 09:51:09;;;;;;;2.60;1.50;;;28.90;43.70;;;;;;6243122;28;20103;-71
2023/06/12 09:54:14;;;;;;;4.78;1.60;;;29.00;43.00;;;;;;6242990;28;20477;-70
2023/06/12 09:57:15;;;;;;;4.10;1.52;;;29.10;42.20;;;;;;6241609;28;20444;-69
2023/06/12 10:00:19;;;;;;;4.88;1.30;;;29.10;40.90;;;;;;6243412;28;20043;-70
2023/06/12 10:03:20;;;;;;;6.32;1.70;;;29.10;40.60;;;;;;6257463;28;20505;-69
2023/06/12 10:06:22;;;;;;;3.97;1.80;;;29.10;40.90;;;;;;6242205;28;20461;-70
2023/06/12 10:09:23;;;;;;;3.05;2.13;;;29.10;41.30;;;;;;6230026;28;20048;-69
2023/06/12 10:12:25;;;;;;;7.80;2.08;;;29.20;41.60;;;;;;6242405;28;20038;-69
2023/06/12 10:15:26;;;;;;;3.28;1.83;;;29.30;41.60;;;;;;6242617;28;20026;-70
2023/06/12 10:18:28;;;;;;;3.72;1.60;;;29.40;41.70;;;;;;6240926;28;20041;-69
2023/06/12 10:21:31;;;;;;;3.30;1.90;;;29.40;41.60;;;;;;6241741;28;20526;-69
2023/06/12 10:24:33;;;;;;;4.78;1.90;;;29.50;41.70;;;;;;6242172;28;20084;-69
2023/06/12 10:27:37;;;;;;;3.05;1.83;;;29.50;41.60;;;;;;6241994;28;20037;-69
2023/06/12 10:30:38;;;;;;;2.95;2.03;;;29.60;41.50;;;;;;6240154;28;20124;-70
2023/06/12 10:34:04;;;;;;;5.03;2.13;;;29.70;41.40;;;;;;6241518;28;20040;-70
2023/06/12 10:37:23;;;;;;;4.47;2.40;;;29.70;41.50;;;;;;6188793;28;20065;-69
2023/06/12 10:40:24;;;;;;;5.80;2.38;;;29.70;41.30;;;;;;6189011;28;20050;-72
2023/06/12 10:43:26;;;;;;;4.57;2.10;;;29.80;41.30;;;;;;6188489;28;20439;-70
2023/06/12 10:46:48;;;;;;;3.63;2.30;;;29.80;41.30;;;;;;6188656;28;20042;-69
2023/06/12 10:49:56;;;;;;;6.13;2.63;;;29.90;41.20;;;;;;6189011;28;20041;-70
2023/06/12 10:52:59;;;;;;;;;;;29.90;41.10;;;;;;6189001;28;20117;-70
2023/06/12 10:56:06;;;;;;;4.07;1.98;;;30.00;41.00;;;;;;6189189;28;19910;-69
2023/06/12 10:59:14;;;;;;;3.30;2.35;;;30.00;40.90;;;;;;6187955;28;20041;-69
2023/06/12 11:02:15;;;;;;;3.40;2.40;;;30.00;40.90;;;;;;6188875;28;20584;-70
2023/06/12 11:05:19;;;;;;;2.92;2.10;;;30.20;40.80;;;;;;6188979;28;20121;-69
2023/06/12 11:08:20;;;;;;;6.20;2.58;;;30.90;39.90;;;;;;6188832;28;20105;-70
2023/06/12 11:11:21;;;;;;;2.83;2.13;;;31.90;38.50;;;;;;6188681;28;20041;-70
2023/06/12 11:14:26;;;;;;;5.80;2.40;;;32.90;37.10;;;;;;6207621;28;20128;-70
2023/06/12 11:17:30;;;;;;;6.00;2.00;;;33.80;35.40;;;;;;6239644;28;20033;-71
2023/06/12 11:20:33;;;;;;;7.22;2.85;;;34.50;34.30;;;;;;6239353;28;20108;-71
2023/06/12 11:23:37;;;;;;;5.70;2.17;;;35.00;33.50;;;;;;6239139;28;20090;-71
2023/06/12 11:26:38;;;;;;;3.47;2.45;;;35.50;32.80;;;;;;6240649;28;20037;-69
2023/06/12 11:29:38;;;;;;;3.10;2.30;;;36.00;32.00;;;;;;6241182;28;20039;-70
2023/06/12 11:32:41;;;;;;;4.47;2.60;;;36.40;31.40;;;;;;6240482;28;20060;-70
2023/06/12 11:35:47;;;;;;;3.05;2.17;;;36.80;30.70;;;;;;6240226;28;20481;-70
2023/06/12 11:38:48;;;;;;;2.72;2.17;;;37.00;30.30;;;;;;6222193;28;20048;-70
2023/06/12 11:41:49;;;;;;;3.97;2.10;;;37.40;30.10;;;;;;6238435;28;20053;-70
2023/06/12 11:44:51;;;;;;;3.72;2.25;;;37.90;29.70;;;;;;6239626;28;20036;-70
2023/06/12 11:47:52;;;;;;;3.05;2.05;;;38.10;29.20;;;;;;6238461;28;20102;-71
2023/06/12 11:50:53;;;;;;;4.00;2.60;;;38.40;29.10;;;;;;6240677;28;20405;-70
2023/06/12 11:53:59;;;;;;;5.63;2.25;;;38.80;28.80;;;;;;6239792;28;20041;-69
2023/06/12 11:57:04;;;;;;;2.80;2.28;;;38.90;28.70;;;;;;6239953;28;20052;-70
2023/06/12 12:00:11;;;;;;;3.95;2.33;;;39.10;28.60;;;;;;6221945;28;20041;-71
2023/06/12 12:03:13;;;;;;;13.20;2.70;;;39.10;28.60;;;;;;6239466;28;20034;-70
2023/06/12 12:06:15;;;;;;;2.92;2.20;;;39.10;28.60;;;;;;6222051;28;20104;-71
2023/06/12 12:09:23;;;;;;;4.00;2.35;;;39.00;28.50;;;;;;6239445;28;20053;-71
2023/06/12 12:12:23;;;;;;;4.00;2.60;;;39.00;28.30;;;;;;6237744;28;20034;-71
2023/06/12 12:15:24;;;;;;;3.22;2.65;;;38.60;28.60;;;;;;6239361;28;20498;-70
2023/06/12 12:18:25;;;;;;;5.07;3.13;;;37.80;29.40;;;;;;6239461;28;20080;-71
2023/06/12 12:21:26;;;;;;;9.73;2.30;;;36.80;30.30;;;;;;6239173;28;20030;-70
2023/06/12 12:24:36;;;;;;;5.18;2.83;;;35.90;31.50;;;;;;6239258;28;20457;-70
2023/06/12 12:27:38;;;;;;;5.80;2.53;;;35.10;32.60;;;;;;6239830;28;20030;-70
2023/06/12 12:30:38;;;;;;;6.03;2.55;;;34.60;33.50;;;;;;6237669;28;20081;-70
2023/06/12 12:33:39;;;;;;;4.65;2.63;;;34.10;34.20;;;;;;6239300;28;20017;-70
2023/06/12 12:36:41;;;;;;;2.92;2.63;;;33.70;34.70;;;;;;6239236;28;20030;-71
2023/06/12 12:39:42;;;;;;;6.47;2.60;;;33.30;35.20;;;;;;6253697;28;20063;-71
2023/06/12 12:42:49;;;;;;;3.20;2.50;;;33.00;35.70;;;;;;6238390;28;20064;-70
2023/06/12 12:45:50;;;;;;;4.10;2.78;;;32.70;36.00;;;;;;6239441;28;20105;-71
2023/06/12 12:48:51;;;;;;;8.30;2.70;;;32.50;36.30;;;;;;6239039;28;20037;-71
2023/06/12 12:51:52;;;;;;;4.35;2.90;;;32.30;36.60;;;;;;6238946;28;20029;-70
2023/06/12 12:54:53;;;;;;;4.93;3.38;;;32.00;37.00;;;;;;6237704;28;20457;-71
2023/06/12 12:57:54;;;;;;;9.07;2.67;;;31.90;37.40;;;;;;6239233;28;20086;-72
2023/06/12 13:00:55;;;;;;;3.35;2.50;;;31.80;37.60;;;;;;6238794;28;20083;-70
2023/06/12 13:03:57;;;;;;;3.58;2.25;;;31.70;37.70;;;;;;6238790;28;20116;-71
2023/06/12 13:06:58;;;;;;;5.05;2.55;;;31.60;37.10;;;;;;6238477;28;20021;-71
2023/06/12 13:10:08;;;;;;;8.05;2.50;;;31.50;36.90;;;;;;6238633;28;20056;-71
2023/06/12 13:13:09;;;;;;;11.77;2.42;;;31.40;36.70;;;;;;6238583;28;20033;-70
2023/06/12 13:16:10;;;;;;;4.45;3.00;;;31.40;36.50;;;;;;6238940;28;20057;-71
2023/06/12 13:19:11;;;;;;;3.67;2.60;;;31.40;36.70;;;;;;6236992;28;20037;-71
2023/06/12 13:22:11;;;;;;;5.18;2.45;;;31.40;37.10;;;;;;6239099;28;20134;-70
2023/06/12 13:25:12;;;;;;;4.68;2.28;;;31.40;37.30;;;;;;6243436;28;20052;-71
2023/06/12 13:28:13;;;;;;;4.68;2.42;;;31.40;37.40;;;;;;6241248;28;20214;-71
2023/06/12 13:31:14;;;;;;;4.88;2.28;;;31.40;38.00;;;;;;6242913;28;20169;-70
2023/06/12 13:34:15;;;;;;;3.00;2.25;;;31.50;37.50;;;;;;6242828;28;20122;-71
2023/06/12 13:37:16;;;;;;;9.93;2.70;;;31.50;37.50;;;;;;6242935;28;20026;-70
2023/06/12 13:40:17;;;;;;;4.55;2.58;;;31.60;37.60;;;;;;6241175;28;20053;-71
2023/06/12 13:43:18;;;;;;;3.97;2.28;;;31.60;37.60;;;;;;6242664;28;20536;-70
2023/06/12 13:46:19;;;;;;;5.78;2.80;;;31.60;37.70;;;;;;6243108;28;20041;-70
2023/06/12 13:49:20;;;;;;;3.25;2.53;;;31.50;37.90;;;;;;6242876;28;20135;-70
2023/06/12 13:52:21;;;;;;;3.70;2.53;;;31.40;38.10;;;;;;6241269;28;20025;-70
2023/06/12 13:55:21;;;;;;;4.43;2.28;;;31.40;38.20;;;;;;6243972;28;20622;-70
2023/06/12 13:58:22;;;;;;;3.35;2.60;;;31.40;38.00;;;;;;6242007;28;20025;-70
2023/06/12 14:01:24;;;;;;;3.25;2.50;;;31.50;37.80;;;;;;6224269;28;20060;-70
2023/06/12 14:04:25;;;;;;;4.47;2.60;;;31.60;37.60;;;;;;6240970;28;20037;-72
2023/06/12 14:07:26;;;;;;;9.73;2.63;;;31.80;37.50;;;;;;6242437;28;20431;-71
2023/06/12 14:10:27;;;;;;;4.60;2.90;;;31.80;37.40;;;;;;6242527;28;20021;-71
2023/06/12 14:13:28;;;;;;;5.85;2.47;;;31.80;37.30;;;;;;6242308;28;20047;-70
2023/06/12 14:16:29;;;;;;;4.97;3.10;;;31.80;37.30;;;;;;6242159;28;20458;-70
2023/06/12 14:19:30;;;;;;;5.70;2.67;;;31.80;37.20;;;;;;6244046;28;20029;-71
2023/06/12 14:22:32;;;;;;;4.03;2.30;;;31.90;37.20;;;;;;6241945;28;20414;-71
2023/06/12 14:25:34;;;;;;;3.55;2.10;;;31.90;37.10;;;;;;6242684;28;20034;-73
2023/06/12 14:28:35;;;;;;;5.28;2.33;;;32.00;36.80;;;;;;6242720;28;20041;-70
2023/06/12 14:31:35;;;;;;;3.63;2.38;;;32.00;36.60;;;;;;6242716;28;20033;-71
2023/06/12 14:34:36;;;;;;;3.13;2.35;;;32.10;36.50;;;;;;6243211;28;20041;-69
2023/06/12 14:37:37;;;;;;;5.60;2.30;;;32.10;36.30;;;;;;6241568;28;20120;-71
2023/06/12 14:40:38;;;;;;;3.78;2.30;;;32.20;36.10;;;;;;6241775;28;20609;-72
2023/06/12 14:43:40;;;;;;;2.33;1.95;;;32.20;36.00;;;;;;6241982;28;20033;-69
2023/06/12 14:46:41;;;;;;;5.40;2.65;;;32.20;35.90;;;;;;6242052;28;20033;-70
2023/06/12 14:49:42;;;;;;;3.90;2.20;;;32.20;35.70;;;;;;6241865;28;20049;-71
2023/06/12 14:52:43;;;;;;;4.05;2.05;;;32.30;35.60;;;;;;6241025;28;20032;-71
2023/06/12 14:55:44;;;;;;;2.75;2.03;;;32.40;35.50;;;;;;6241188;28;20037;-71
2023/06/12 14:58:45;;;;;;;5.63;2.85;;;32.40;35.30;;;;;;6240897;28;20079;-71
2023/06/12 15:01:46;;;;;;;3.88;2.65;;;32.60;35.10;;;;;;6238586;28;20580;-71
2023/06/12 15:04:47;;;;;;;5.43;2.42;;;32.80;35.00;;;;;;6240543;28;20117;-70
2023/06/12 15:07:48;;;;;;;4.20;2.42;;;32.90;34.80;;;;;;6240377;28;20033;-69
2023/06/12 15:10:52;;;;;;;6.45;2.45;;;33.10;34.80;;;;;;6222015;28;20184;-69
2023/06/12 15:13:53;;;;;;;6.95;2.63;;;33.20;34.80;;;;;;6240319;28;20025;-70
2023/06/12 15:16:54;;;;;;;5.30;2.35;;;33.40;34.70;;;;;;6240848;28;20105;-69
2023/06/12 15:19:55;;;;;;;4.18;2.40;;;33.60;34.50;;;;;;6240870;28;20430;-71
2023/06/12 15:22:56;;;;;;;4.32;2.60;;;33.60;34.50;;;;;;6238749;28;20038;-70
2023/06/12 15:25:57;;;;;;;3.92;2.67;;;33.60;34.20;;;;;;6240860;28;20056;-71
2023/06/12 15:28:57;;;;;;;8.60;2.72;;;33.60;34.30;;;;;;6239603;28;20026;-70
2023/06/12 15:32:04;;;;;;;4.13;2.40;;;33.50;34.40;;;;;;6240231;28;20033;-71
2023/06/12 15:35:05;;;;;;;5.60;2.42;;;33.40;34.60;;;;;;6240287;28;20040;-70
2023/06/12 15:38:43;;;;;;;3.70;2.67;;;33.30;34.60;;;;;;6240493;28;20120;-70
2023/06/12 15:41:44;;;;;;;4.17;2.60;;;33.30;34.70;;;;;;6239994;28;20185;-71
2023/06/12 15:44:47;;;;;;;4.43;2.63;;;33.20;34.60;;;;;;6239518;28;20057;-70
2023/06/12 15:47:48;;;;;;;3.85;2.50;;;33.10;34.80;;;;;;6240374;28;20094;-71
2023/06/12 15:50:49;;;;;;;4.53;2.33;;;32.90;35.00;;;;;;6238872;28;20047;-70